createdAt,value
2022-08-17T00:00:10.989Z,7.88
2022-08-17T00:03:08.202Z,8.02
2022-08-17T00:05:38.760Z,8.02
2022-08-17T00:08:06.338Z,7.70
2022-08-17T00:10:34.662Z,8.18
2022-08-17T00:13:06.624Z,7.72
2022-08-17T00:15:34.333Z,8.38
2022-08-17T00:18:03.307Z,8.68
2022-08-17T00:20:50.877Z,7.78
2022-08-17T00:23:18.835Z,8.13
2022-08-17T00:25:47.934Z,8.00
2022-08-17T00:28:16.860Z,8.38
2022-08-17T00:30:51.255Z,8.52
2022-08-17T00:33:24.141Z,8.73
2022-08-17T00:35:52.651Z,8.32
2022-08-17T00:38:20.361Z,8.88
2022-08-17T00:40:50.278Z,7.97
2022-08-17T00:43:22.616Z,8.32
2022-08-17T00:45:50.627Z,7.97
2022-08-17T00:48:28.994Z,8.38
2022-08-17T00:51:06.373Z,7.90
2022-08-17T00:53:35.898Z,8.13
2022-08-17T00:56:07.089Z,7.38
2022-08-17T00:58:36.194Z,7.80
2022-08-17T01:01:06.193Z,8.07
2022-08-17T01:03:35.711Z,7.60
2022-08-17T01:06:07.142Z,7.85
2022-08-17T01:08:36.621Z,8.23
2022-08-17T01:11:05.313Z,7.03
2022-08-17T01:13:40.841Z,7.78
2022-08-17T01:16:15.848Z,7.55
2022-08-17T01:21:21.101Z,7.68
2022-08-17T01:23:50.403Z,7.03
2022-08-17T01:26:19.201Z,7.68
2022-08-17T01:28:54.416Z,7.60
2022-08-17T01:31:23.531Z,8.15
2022-08-17T01:33:51.194Z,8.27
2022-08-17T01:36:19.030Z,7.63
2022-08-17T01:38:46.697Z,7.88
2022-08-17T01:41:17.732Z,7.70
2022-08-17T01:43:50.195Z,8.50
2022-08-17T01:46:26.861Z,8.00
2022-08-17T01:48:55.086Z,8.25
2022-08-17T01:51:23.278Z,8.38
2022-08-17T01:53:53.937Z,8.18
2022-08-17T01:56:25.312Z,8.02
2022-08-17T01:58:53.515Z,8.32
2022-08-17T02:01:26.373Z,8.32
2022-08-17T02:04:00.652Z,8.30
2022-08-17T02:06:30.660Z,8.10
2022-08-17T02:09:02.893Z,8.15
2022-08-17T02:11:35.043Z,8.30
2022-08-17T02:14:04.111Z,8.32
2022-08-17T02:16:36.894Z,7.70
2022-08-17T02:19:05.982Z,8.50
2022-08-17T02:21:33.978Z,7.82
2022-08-17T02:24:01.850Z,7.70
2022-08-17T02:26:29.486Z,8.10
2022-08-17T02:28:58.363Z,7.78
2022-08-17T02:31:25.952Z,7.65
2022-08-17T02:34:00.341Z,7.07
2022-08-17T02:36:32.184Z,7.80
2022-08-17T02:39:01.430Z,6.95
2022-08-17T02:41:29.108Z,7.30
2022-08-17T02:43:58.530Z,7.07
2022-08-17T02:46:26.176Z,7.50
2022-08-17T02:48:53.758Z,6.72
2022-08-17T02:51:21.323Z,7.10
2022-08-17T02:53:48.974Z,6.95
2022-08-17T02:56:16.912Z,7.07
2022-08-17T02:58:44.479Z,7.18
2022-08-17T03:01:13.551Z,6.80
2022-08-17T03:03:41.576Z,6.80
2022-08-17T03:06:10.038Z,6.35
2022-08-17T03:08:38.357Z,6.35
2022-08-17T03:11:06.241Z,7.00
2022-08-17T03:13:34.018Z,6.65
2022-08-17T03:16:01.649Z,6.00
2022-08-17T03:18:30.561Z,5.80
2022-08-17T03:21:01.679Z,6.30
2022-08-17T03:23:30.360Z,6.20
2022-08-17T03:25:58.617Z,5.15
2022-08-17T03:28:28.125Z,6.47
2022-08-17T03:30:55.867Z,5.88
2022-08-17T03:33:23.497Z,5.90
2022-08-17T03:35:53.028Z,5.88
2022-08-17T03:38:20.622Z,6.57
2022-08-17T03:40:57.975Z,6.00
2022-08-17T03:43:29.639Z,5.35
2022-08-17T03:46:27.624Z,6.03
2022-08-17T03:49:14.941Z,6.00
2022-08-17T03:52:01.645Z,5.70
2022-08-17T03:54:46.655Z,5.43
2022-08-17T03:57:14.856Z,5.70
2022-08-17T03:59:42.885Z,5.63
2022-08-17T04:02:19.683Z,5.88
2022-08-17T04:07:19.608Z,6.10
2022-08-17T04:09:47.614Z,6.20
2022-08-17T04:12:16.346Z,5.55
2022-08-17T04:14:52.085Z,6.43
2022-08-17T04:17:23.445Z,5.68
2022-08-17T04:19:51.008Z,6.50
2022-08-17T04:22:31.431Z,6.40
2022-08-17T04:25:05.652Z,5.72
2022-08-17T04:27:33.373Z,6.90
2022-08-17T04:30:01.070Z,6.85
2022-08-17T04:33:03.401Z,6.40
2022-08-17T04:35:19.897Z,6.32
2022-08-17T04:37:48.908Z,5.97
2022-08-17T04:40:34.243Z,6.90
2022-08-17T04:43:03.527Z,5.93
2022-08-17T04:45:32.184Z,6.32
2022-08-17T04:48:00.303Z,6.07
2022-08-17T04:50:27.934Z,6.63
2022-08-17T04:52:57.290Z,6.60
2022-08-17T04:55:25.030Z,6.30
2022-08-17T04:57:52.544Z,6.25
2022-08-17T05:00:20.299Z,6.45
2022-08-17T05:02:49.814Z,5.82
2022-08-17T05:05:19.974Z,6.43
2022-08-17T05:07:48.745Z,5.95
2022-08-17T05:10:17.920Z,5.53
2022-08-17T05:12:45.473Z,5.85
2022-08-17T05:15:15.961Z,5.90
2022-08-17T05:17:43.728Z,5.97
2022-08-17T05:20:12.286Z,6.05
2022-08-17T05:22:50.054Z,5.93
2022-08-17T05:25:24.952Z,5.63
2022-08-17T05:27:54.106Z,5.80
2022-08-17T05:30:22.895Z,5.88
2022-08-17T05:32:55.468Z,5.70
2022-08-17T05:35:23.957Z,5.30
2022-08-17T05:37:51.767Z,5.53
2022-08-17T05:40:21.374Z,5.68
2022-08-17T05:42:49.806Z,6.07
2022-08-17T05:45:54.856Z,5.22
2022-08-17T05:48:10.166Z,5.55
2022-08-17T05:50:49.317Z,6.00
2022-08-17T05:53:25.247Z,6.20
2022-08-17T05:56:05.470Z,5.40
2022-08-17T05:58:43.052Z,5.90
2022-08-17T06:01:20.323Z,5.20
2022-08-17T06:03:56.199Z,5.70
2022-08-17T06:06:37.779Z,5.65
2022-08-17T06:09:27.613Z,5.72
2022-08-17T06:12:12.865Z,5.93
2022-08-17T06:14:58.829Z,5.63
2022-08-17T06:17:28.023Z,5.60
2022-08-17T06:19:59.619Z,5.78
2022-08-17T06:22:32.886Z,5.00
2022-08-17T06:25:03.395Z,5.60
2022-08-17T06:27:38.477Z,5.47
2022-08-17T06:30:10.048Z,5.35
2022-08-17T06:32:39.771Z,5.25
2022-08-17T06:35:10.236Z,5.00
2022-08-17T06:37:55.158Z,4.68
2022-08-17T06:43:20.106Z,5.07
2022-08-17T06:45:54.157Z,5.07
2022-08-17T06:48:27.617Z,5.05
2022-08-17T06:51:01.758Z,4.53
2022-08-17T06:53:35.394Z,4.90
2022-08-17T06:56:08.670Z,5.10
2022-08-17T06:58:40.802Z,4.68
2022-08-17T07:01:11.402Z,4.85
2022-08-17T07:03:45.513Z,4.90
2022-08-17T07:06:16.826Z,4.80
2022-08-17T07:08:56.458Z,4.88
2022-08-17T07:11:31.330Z,4.90
2022-08-17T07:14:17.301Z,4.57
2022-08-17T07:16:50.309Z,4.90
2022-08-17T07:19:22.435Z,4.97
2022-08-17T07:21:58.047Z,5.40
2022-08-17T07:24:37.185Z,4.72
2022-08-17T07:27:08.806Z,5.05
2022-08-17T07:29:42.602Z,5.00
2022-08-17T07:32:12.254Z,5.32
2022-08-17T07:35:03.089Z,6.43
2022-08-17T07:37:33.219Z,6.28
2022-08-17T07:40:16.494Z,6.07
2022-08-17T07:43:00.953Z,5.32
2022-08-17T07:45:48.432Z,5.53
2022-08-17T07:48:21.034Z,5.18
2022-08-17T07:50:50.710Z,4.88
2022-08-17T07:53:23.054Z,4.65
2022-08-17T07:55:51.609Z,5.07
2022-08-17T07:58:21.350Z,4.43
2022-08-17T08:01:05.362Z,4.30
2022-08-17T08:03:34.177Z,4.57
2022-08-17T08:06:03.579Z,4.45
2022-08-17T08:08:38.276Z,4.03
2022-08-17T08:11:10.217Z,4.50
2022-08-17T08:13:44.949Z,4.47
2022-08-17T08:16:25.242Z,4.28
2022-08-17T08:18:57.266Z,4.35
2022-08-17T08:21:32.894Z,4.50
2022-08-17T08:24:09.697Z,4.60
2022-08-17T08:26:43.350Z,4.38
2022-08-17T08:29:22.402Z,3.90
2022-08-17T08:32:03.578Z,4.20
2022-08-17T08:34:58.843Z,4.72
2022-08-17T08:37:40.510Z,4.78
2022-08-17T08:40:21.224Z,4.95
2022-08-17T08:42:57.908Z,4.97
2022-08-17T08:45:30.405Z,4.88
2022-08-17T08:48:23.050Z,5.50
2022-08-17T08:51:10.893Z,5.28
2022-08-17T08:53:48.962Z,4.78
2022-08-17T08:56:25.956Z,5.10
2022-08-17T08:59:03.010Z,4.85
2022-08-17T09:01:38.724Z,5.57
2022-08-17T09:04:40.693Z,5.18
2022-08-17T09:07:33.559Z,5.50
2022-08-17T09:10:10.479Z,5.72
2022-08-17T09:12:47.537Z,5.78
2022-08-17T09:15:19.008Z,5.35
2022-08-17T09:18:08.873Z,5.18
2022-08-17T09:20:50.186Z,5.60
2022-08-17T09:23:30.281Z,6.30
2022-08-17T09:26:03.946Z,5.75
2022-08-17T09:28:36.344Z,5.78
2022-08-17T09:31:09.266Z,6.20
2022-08-17T09:33:43.449Z,5.57
2022-08-17T09:36:21.668Z,6.53
2022-08-17T09:38:58.168Z,6.70
2022-08-17T09:41:32.786Z,6.22
2022-08-17T09:44:08.502Z,6.40
2022-08-17T09:46:54.573Z,6.60
2022-08-17T09:49:30.717Z,6.63
2022-08-17T09:52:04.182Z,6.75
2022-08-17T09:54:41.305Z,6.78
2022-08-17T09:57:30.200Z,6.47
2022-08-17T10:00:16.967Z,6.93
2022-08-17T10:03:10.000Z,6.95
2022-08-17T10:05:45.317Z,6.88
2022-08-17T10:08:25.573Z,7.28
2022-08-17T10:11:05.430Z,6.93
2022-08-17T10:13:39.119Z,6.75
2022-08-17T10:16:15.316Z,7.05
2022-08-17T10:18:51.630Z,7.13
2022-08-17T10:21:37.937Z,7.35
2022-08-17T10:24:34.380Z,7.90
2022-08-17T10:27:09.586Z,8.50
2022-08-17T10:29:48.602Z,8.15
2022-08-17T10:32:32.630Z,8.48
2022-08-17T10:35:29.703Z,8.15
2022-08-17T10:38:32.525Z,8.05
2022-08-17T10:41:12.868Z,8.10
2022-08-17T10:44:35.397Z,8.05
2022-08-17T10:46:57.247Z,9.02
2022-08-17T10:49:32.528Z,8.70
2022-08-17T10:52:02.906Z,8.23
2022-08-17T10:54:48.375Z,8.32
2022-08-17T10:57:42.688Z,9.57
2022-08-17T11:01:12.633Z,9.10
2022-08-17T11:03:53.377Z,8.70
2022-08-17T11:06:30.875Z,9.00
2022-08-17T11:09:24.639Z,8.30
2022-08-17T11:12:07.138Z,10.07
2022-08-17T11:14:49.947Z,9.25
2022-08-17T11:17:41.379Z,9.68
2022-08-17T11:20:23.143Z,10.02
2022-08-17T11:23:23.864Z,9.82
2022-08-17T11:25:54.226Z,10.38
2022-08-17T11:28:25.755Z,10.25
2022-08-17T11:30:57.509Z,10.93
2022-08-17T11:33:59.206Z,10.90
2022-08-17T11:36:37.368Z,11.43
2022-08-17T11:39:16.173Z,10.80
2022-08-17T11:41:50.898Z,10.65
2022-08-17T11:44:39.041Z,10.02
2022-08-17T11:47:33.657Z,11.05
2022-08-17T11:50:38.734Z,10.90
2022-08-17T11:53:07.913Z,11.90
2022-08-17T11:56:05.157Z,10.63
2022-08-17T11:58:39.936Z,11.52
2022-08-17T12:01:10.300Z,11.82
2022-08-17T12:03:56.001Z,11.73
2022-08-17T12:06:45.016Z,11.95
2022-08-17T12:09:17.883Z,12.05
2022-08-17T12:11:57.763Z,11.88
2022-08-17T12:15:08.146Z,12.00
2022-08-17T12:17:41.299Z,13.43
2022-08-17T12:20:16.093Z,13.35
2022-08-17T12:22:54.671Z,13.82
2022-08-17T12:25:27.156Z,13.35
2022-08-17T12:28:05.426Z,11.77
2022-08-17T12:30:35.088Z,13.57
2022-08-17T12:33:02.817Z,13.25
2022-08-17T12:35:35.054Z,13.43
2022-08-17T12:38:06.396Z,16.13
2022-08-17T12:40:55.461Z,16.13
2022-08-17T12:43:29.182Z,13.95
2022-08-17T12:46:01.008Z,14.35
2022-08-17T12:48:58.765Z,16.15
2022-08-17T12:51:29.874Z,15.23
2022-08-17T12:53:57.536Z,14.30
2022-08-17T12:56:25.446Z,14.55
2022-08-17T12:58:55.481Z,14.02
2022-08-17T13:01:25.681Z,13.82
2022-08-17T13:04:00.615Z,11.50
2022-08-17T13:06:33.074Z,16.98
2022-08-17T13:09:10.432Z,15.25
2022-08-17T13:11:47.747Z,16.23
2022-08-17T13:14:18.205Z,17.52
2022-08-17T13:16:50.963Z,17.70
2022-08-17T13:19:39.932Z,16.87
2022-08-17T13:22:12.852Z,15.90
2022-08-17T13:24:52.966Z,13.60
2022-08-17T13:27:22.624Z,18.00
2022-08-17T13:29:53.443Z,16.90
2022-08-17T13:32:24.106Z,14.88
2022-08-17T13:35:12.115Z,15.98
2022-08-17T13:37:58.583Z,16.67
2022-08-17T13:40:31.309Z,15.85
2022-08-17T13:42:59.526Z,14.27
2022-08-17T13:45:50.398Z,15.80
2022-08-17T13:48:27.522Z,15.38
2022-08-17T13:51:27.043Z,15.20
2022-08-17T13:54:00.316Z,12.27
2022-08-17T13:56:39.589Z,12.80
2022-08-17T13:59:11.266Z,13.90
2022-08-17T14:01:41.388Z,15.40
2022-08-17T14:04:12.207Z,15.88
2022-08-17T14:06:54.165Z,16.20
2022-08-17T14:09:29.779Z,19.42
2022-08-17T14:12:00.176Z,17.48
2022-08-17T14:14:29.190Z,16.80
2022-08-17T14:16:57.810Z,16.08
2022-08-17T14:19:26.900Z,19.83
2022-08-17T14:21:58.665Z,16.40
2022-08-17T14:24:30.761Z,17.35
2022-08-17T14:26:58.986Z,15.52
2022-08-17T14:29:29.197Z,17.42
2022-08-17T14:31:58.156Z,20.17
2022-08-17T14:34:26.149Z,16.33
2022-08-17T14:36:53.815Z,18.38
2022-08-17T14:39:21.863Z,17.45
2022-08-17T14:41:50.930Z,16.60
2022-08-17T14:44:18.480Z,21.23
2022-08-17T14:46:46.240Z,20.63
2022-08-17T14:49:15.533Z,22.30
2022-08-17T14:51:44.498Z,22.20
2022-08-17T14:54:32.636Z,17.58
2022-08-17T14:57:24.888Z,19.42
2022-08-17T14:59:54.895Z,22.58
2022-08-17T15:02:29.840Z,21.50
2022-08-17T15:05:00.470Z,22.13
2022-08-17T15:07:30.255Z,18.42
2022-08-17T15:09:58.703Z,21.80
2022-08-17T15:12:33.624Z,16.45
2022-08-17T15:15:01.941Z,21.50
2022-08-17T15:17:45.063Z,22.25
2022-08-17T15:20:15.312Z,23.83
2022-08-17T15:22:44.220Z,21.85
2022-08-17T15:25:12.740Z,19.88
2022-08-17T15:27:41.834Z,19.88
2022-08-17T15:30:10.906Z,20.05
2022-08-17T15:32:40.817Z,19.17
2022-08-17T15:35:11.703Z,15.90
2022-08-17T15:37:40.152Z,19.75
2022-08-17T15:40:10.114Z,20.30
2022-08-17T15:42:38.383Z,17.48
2022-08-17T15:45:09.907Z,17.45
2022-08-17T15:47:37.867Z,19.70
2022-08-17T15:50:06.415Z,22.30
2022-08-17T15:52:38.024Z,17.98
2022-08-17T15:55:07.720Z,17.98
2022-08-17T15:57:36.081Z,18.92
2022-08-17T16:00:08.701Z,22.40
2022-08-17T16:03:20.308Z,20.10
2022-08-17T16:05:27.326Z,20.63
2022-08-17T16:07:55.948Z,22.92
2022-08-17T16:10:25.187Z,22.52
2022-08-17T16:13:03.208Z,23.30
2022-08-17T16:15:32.744Z,23.48
2022-08-17T16:18:00.526Z,24.55
2022-08-17T16:20:30.548Z,26.20
2022-08-17T16:22:58.857Z,24.73
2022-08-17T16:25:47.230Z,26.65
2022-08-17T16:28:18.226Z,25.33
2022-08-17T16:30:47.137Z,28.63
2022-08-17T16:33:16.558Z,25.88
2022-08-17T16:35:44.157Z,26.45
2022-08-17T16:38:12.391Z,26.35
2022-08-17T16:40:40.434Z,28.40
2022-08-17T16:43:10.390Z,26.48
2022-08-17T16:45:40.041Z,27.95
2022-08-17T16:48:09.620Z,28.45
2022-08-17T16:50:38.460Z,29.10
2022-08-17T16:53:07.808Z,27.50
2022-08-17T16:55:36.501Z,28.92
2022-08-17T16:58:04.896Z,29.30
2022-08-17T17:00:34.222Z,32.08
2022-08-17T17:03:19.632Z,31.45
2022-08-17T17:05:58.482Z,29.42
2022-08-17T17:08:31.259Z,30.77
2022-08-17T17:11:04.841Z,30.75
2022-08-17T17:13:41.907Z,30.08
2022-08-17T17:16:19.196Z,27.80
2022-08-17T17:19:03.247Z,29.75
2022-08-17T17:21:36.729Z,28.98
2022-08-17T17:24:12.241Z,28.87
2022-08-17T17:26:53.841Z,26.80
2022-08-17T17:29:47.492Z,26.75
2022-08-17T17:34:54.604Z,27.30
2022-08-17T17:37:29.955Z,25.27
2022-08-17T17:40:03.672Z,24.95
2022-08-17T17:42:33.005Z,25.70
2022-08-17T17:45:17.578Z,25.90
2022-08-17T17:47:46.092Z,26.40
2022-08-17T17:50:18.178Z,26.50
2022-08-17T17:52:52.594Z,26.00
2022-08-17T17:58:03.646Z,22.90
2022-08-17T18:00:38.675Z,24.02
2022-08-17T18:03:21.766Z,25.50
2022-08-17T18:06:00.663Z,25.00
2022-08-17T18:08:47.806Z,27.02
2022-08-17T18:11:35.053Z,24.90
2022-08-17T18:14:15.240Z,25.33
2022-08-17T18:16:43.640Z,25.35
2022-08-17T18:19:14.934Z,23.10
2022-08-17T18:21:48.145Z,24.27
2022-08-17T18:24:15.789Z,25.80
2022-08-17T18:26:48.144Z,23.33
2022-08-17T18:29:31.470Z,24.25
2022-08-17T18:32:24.553Z,25.20
2022-08-17T18:34:54.112Z,26.58
2022-08-17T18:37:35.258Z,25.45
2022-08-17T18:40:26.869Z,24.95
2022-08-17T18:43:02.900Z,25.65
2022-08-17T18:45:38.369Z,27.83
2022-08-17T18:48:17.901Z,26.48
2022-08-17T18:50:45.899Z,26.30
2022-08-17T18:53:30.346Z,27.13
2022-08-17T18:56:35.913Z,27.83
2022-08-17T18:59:10.799Z,28.20
2022-08-17T19:02:05.156Z,28.27
2022-08-17T19:04:41.366Z,28.20
2022-08-17T19:07:25.433Z,27.60
2022-08-17T19:09:59.254Z,28.77
2022-08-17T19:12:32.407Z,27.67
2022-08-17T19:15:02.824Z,27.45
2022-08-17T19:17:43.682Z,27.13
2022-08-17T19:20:18.442Z,27.45
2022-08-17T19:22:55.463Z,27.23
2022-08-17T19:25:28.328Z,28.50
2022-08-17T19:28:03.515Z,29.13
2022-08-17T19:30:32.027Z,29.17
2022-08-17T19:33:01.843Z,29.02
2022-08-17T19:35:39.124Z,30.25
2022-08-17T19:38:12.925Z,30.60
2022-08-17T19:41:03.115Z,29.70
2022-08-17T19:43:47.907Z,29.65
2022-08-17T19:46:25.935Z,28.52
2022-08-17T19:49:03.253Z,27.70
2022-08-17T19:51:40.465Z,29.20
2022-08-17T19:54:15.419Z,28.27
2022-08-17T19:56:55.420Z,28.42
2022-08-17T19:59:35.952Z,29.75
2022-08-17T20:02:16.172Z,31.25
2022-08-17T20:04:48.370Z,29.10
2022-08-17T20:07:19.938Z,29.80
2022-08-17T20:09:52.938Z,31.30
2022-08-17T20:12:26.639Z,30.23
2022-08-17T20:14:57.617Z,30.67
2022-08-17T20:17:28.629Z,31.05
2022-08-17T20:20:04.508Z,31.25
2022-08-17T20:22:52.521Z,31.05
2022-08-17T20:25:29.871Z,30.40
2022-08-17T20:28:06.263Z,29.92
2022-08-17T20:30:38.351Z,29.60
2022-08-17T20:33:13.122Z,29.48
2022-08-17T20:36:01.149Z,29.95
2022-08-17T20:38:41.660Z,30.30
2022-08-17T20:41:15.211Z,27.42
2022-08-17T20:43:52.181Z,30.48
2022-08-17T20:46:34.133Z,29.05
2022-08-17T20:49:21.667Z,30.23
2022-08-17T20:52:01.744Z,29.20
2022-08-17T20:54:49.764Z,30.08
2022-08-17T20:57:49.773Z,29.55
2022-08-17T21:00:45.066Z,28.55
2022-08-17T21:03:51.903Z,29.55
2022-08-17T21:06:23.218Z,29.02
2022-08-17T21:08:58.742Z,29.75
2022-08-17T21:12:04.012Z,29.60
2022-08-17T21:14:57.981Z,28.50
2022-08-17T21:17:41.774Z,31.02
2022-08-17T21:20:26.382Z,30.92
2022-08-17T21:23:08.279Z,30.35
2022-08-17T21:25:57.016Z,30.95
2022-08-17T21:28:35.250Z,29.40
2022-08-17T21:31:11.813Z,30.30
2022-08-17T21:34:20.436Z,28.67
2022-08-17T21:36:50.158Z,28.85
2022-08-17T21:39:24.229Z,29.02
2022-08-17T21:42:00.517Z,29.08
2022-08-17T21:44:34.610Z,29.67
2022-08-17T21:47:21.696Z,29.38
2022-08-17T21:49:50.869Z,27.92
2022-08-17T21:52:21.125Z,31.02
2022-08-17T21:54:51.872Z,28.33
2022-08-17T21:57:22.628Z,30.88
2022-08-17T21:59:54.554Z,28.85
2022-08-17T22:02:24.802Z,29.67
2022-08-17T22:05:02.770Z,30.20
2022-08-17T22:07:40.682Z,28.77
2022-08-17T22:10:28.583Z,29.83
2022-08-17T22:13:03.413Z,29.15
2022-08-17T22:15:31.042Z,28.70
2022-08-17T22:18:01.947Z,29.60
2022-08-17T22:20:30.945Z,29.13
2022-08-17T22:23:30.118Z,29.55
2022-08-17T22:25:59.977Z,30.13
2022-08-17T22:28:40.822Z,30.13
2022-08-17T22:31:10.815Z,29.92
2022-08-17T22:33:46.717Z,31.30
2022-08-17T22:36:22.581Z,30.70
2022-08-17T22:38:51.532Z,30.55
2022-08-17T22:41:30.088Z,31.88
2022-08-17T22:43:59.299Z,31.52
2022-08-17T22:46:27.667Z,30.77
2022-08-17T22:48:59.217Z,31.80
2022-08-17T22:51:30.600Z,30.55
2022-08-17T22:54:19.162Z,31.30
2022-08-17T22:57:18.669Z,31.63
2022-08-17T22:59:50.380Z,31.65
2022-08-17T23:02:22.992Z,31.90
2022-08-17T23:04:53.026Z,32.13
2022-08-17T23:07:22.581Z,31.88
2022-08-17T23:09:50.171Z,31.45
2022-08-17T23:12:23.188Z,31.98
2022-08-17T23:14:56.898Z,33.97
2022-08-17T23:17:24.489Z,34.20
2022-08-17T23:19:52.044Z,33.03
2022-08-17T23:22:19.619Z,34.50
2022-08-17T23:24:50.472Z,35.50
2022-08-17T23:27:19.793Z,32.83
2022-08-17T23:29:48.583Z,34.35
2022-08-17T23:32:18.581Z,32.90
2022-08-17T23:34:47.688Z,34.60
2022-08-17T23:37:16.690Z,35.42
2022-08-17T23:39:45.616Z,34.33
2022-08-17T23:42:21.767Z,35.35
2022-08-17T23:44:49.729Z,35.10
2022-08-17T23:47:17.809Z,35.50
2022-08-17T23:49:45.652Z,35.97
2022-08-17T23:52:16.403Z,37.45
2022-08-17T23:54:46.365Z,36.53
2022-08-17T23:57:17.650Z,36.58
2022-08-17T23:59:45.882Z,35.88
